createdAt,value
2022-08-18T00:00:29.894Z,24.24
2022-08-18T00:01:41.445Z,24.23
2022-08-18T00:02:54.446Z,24.23
2022-08-18T00:04:12.479Z,24.22
2022-08-18T00:05:27.031Z,24.21
2022-08-18T00:06:32.665Z,24.21
2022-08-18T00:07:35.634Z,24.21
2022-08-18T00:08:38.697Z,24.21
2022-08-18T00:09:42.040Z,24.20
2022-08-18T00:10:44.783Z,24.20
2022-08-18T00:11:47.447Z,24.20
2022-08-18T00:13:06.286Z,24.20
2022-08-18T00:14:11.588Z,24.20
2022-08-18T00:15:24.692Z,24.19
2022-08-18T00:16:27.433Z,24.19
2022-08-18T00:17:30.606Z,24.19
2022-08-18T00:18:33.265Z,24.19
2022-08-18T00:19:47.094Z,24.19
2022-08-18T00:20:50.574Z,24.19
2022-08-18T00:21:53.262Z,24.19
2022-08-18T00:22:58.827Z,24.20
2022-08-18T00:24:01.573Z,24.20
2022-08-18T00:25:04.385Z,24.20
2022-08-18T00:26:07.047Z,24.20
2022-08-18T00:27:10.946Z,24.21
2022-08-18T00:28:14.727Z,24.21
2022-08-18T00:29:17.383Z,24.21
2022-08-18T00:30:21.500Z,24.22
2022-08-18T00:31:24.721Z,24.21
2022-08-18T00:32:29.021Z,24.21
2022-08-18T00:33:31.774Z,24.21
2022-08-18T00:34:34.464Z,24.22
2022-08-18T00:35:38.337Z,24.23
2022-08-18T00:36:41.247Z,24.23
2022-08-18T00:37:44.654Z,24.23
2022-08-18T00:38:47.342Z,24.25
2022-08-18T00:39:50.822Z,24.25
2022-08-18T00:40:54.580Z,24.26
2022-08-18T00:41:57.294Z,24.27
2022-08-18T00:43:01.974Z,24.27
2022-08-18T00:44:04.690Z,24.26
2022-08-18T00:45:07.707Z,24.27
2022-08-18T00:46:14.495Z,24.26
2022-08-18T00:47:17.212Z,24.27
2022-08-18T00:48:39.981Z,24.26
2022-08-18T00:49:52.860Z,24.25
2022-08-18T00:50:57.765Z,24.24
2022-08-18T00:52:01.258Z,24.23
2022-08-18T00:53:07.127Z,24.22
2022-08-18T00:54:21.317Z,24.21
2022-08-18T00:55:25.040Z,24.21
2022-08-18T00:56:31.639Z,24.19
2022-08-18T00:57:35.315Z,24.19
2022-08-18T00:58:41.120Z,24.18
2022-08-18T00:59:45.779Z,24.17
2022-08-18T01:00:50.665Z,24.17
2022-08-18T01:01:55.706Z,24.16
2022-08-18T01:03:01.145Z,24.15
2022-08-18T01:04:16.225Z,24.14
2022-08-18T01:05:24.591Z,24.15
2022-08-18T01:06:32.425Z,24.14
2022-08-18T01:07:42.754Z,24.15
2022-08-18T01:08:45.567Z,24.14
2022-08-18T01:09:49.719Z,24.15
2022-08-18T01:10:53.197Z,24.14
2022-08-18T01:11:56.594Z,24.15
2022-08-18T01:12:59.303Z,24.16
2022-08-18T01:14:01.930Z,24.15
2022-08-18T01:15:04.870Z,24.16
2022-08-18T01:16:26.613Z,24.16
2022-08-18T01:17:48.230Z,24.16
2022-08-18T01:19:09.644Z,24.17
2022-08-18T01:20:33.409Z,24.16
2022-08-18T01:21:53.573Z,24.16
2022-08-18T01:23:07.378Z,24.17
2022-08-18T01:24:13.048Z,24.17
2022-08-18T01:25:35.968Z,24.17
2022-08-18T01:26:45.618Z,24.18
2022-08-18T01:27:48.569Z,24.18
2022-08-18T01:28:52.521Z,24.18
2022-08-18T01:29:55.213Z,24.18
2022-08-18T01:32:37.058Z,24.20
2022-08-18T01:33:42.569Z,24.20
2022-08-18T01:34:47.869Z,24.21
2022-08-18T01:35:50.849Z,24.21
2022-08-18T01:36:55.007Z,24.19
2022-08-18T01:37:57.834Z,24.18
2022-08-18T01:39:00.648Z,24.20
2022-08-18T01:41:17.376Z,24.18
2022-08-18T01:41:31.099Z,24.18
2022-08-18T01:42:34.423Z,24.18
2022-08-18T01:43:38.306Z,24.19
2022-08-18T01:44:41.824Z,24.20
2022-08-18T01:45:45.128Z,24.19
2022-08-18T01:46:47.824Z,24.20
2022-08-18T01:47:50.720Z,24.21
2022-08-18T01:48:53.843Z,24.22
2022-08-18T01:49:58.365Z,24.22
2022-08-18T01:51:01.409Z,24.23
2022-08-18T01:52:06.808Z,24.24
2022-08-18T01:53:11.518Z,24.25
2022-08-18T01:54:14.846Z,24.26
2022-08-18T01:55:18.162Z,24.26
2022-08-18T01:56:22.263Z,24.27
2022-08-18T01:57:25.092Z,24.27
2022-08-18T01:58:31.791Z,24.28
2022-08-18T01:59:35.391Z,24.28
2022-08-18T02:00:38.453Z,24.28
2022-08-18T02:01:48.102Z,24.29
2022-08-18T02:02:58.076Z,24.29
2022-08-18T02:04:33.355Z,24.30
2022-08-18T02:05:36.107Z,24.26
2022-08-18T02:06:39.718Z,24.28
2022-08-18T02:07:49.093Z,24.28
2022-08-18T02:08:57.293Z,24.28
2022-08-18T02:09:59.990Z,24.28
2022-08-18T02:11:03.471Z,24.29
2022-08-18T02:12:07.348Z,24.29
2022-08-18T02:13:10.254Z,24.29
2022-08-18T02:14:12.875Z,24.27
2022-08-18T02:15:15.525Z,24.28
2022-08-18T02:16:18.346Z,24.26
2022-08-18T02:17:22.903Z,24.26
2022-08-18T02:18:48.183Z,24.25
2022-08-18T02:19:51.503Z,24.26
2022-08-18T02:20:55.105Z,24.26
2022-08-18T02:21:57.863Z,24.26
2022-08-18T02:23:01.869Z,24.27
2022-08-18T02:24:04.666Z,24.26
2022-08-18T02:25:08.124Z,24.26
2022-08-18T02:26:12.632Z,24.25
2022-08-18T02:27:16.050Z,24.25
2022-08-18T02:28:18.838Z,24.25
2022-08-18T02:29:21.513Z,24.23
2022-08-18T02:30:24.137Z,24.22
2022-08-18T02:31:26.936Z,24.22
2022-08-18T02:32:30.187Z,24.20
2022-08-18T02:33:33.912Z,24.17
2022-08-18T02:34:36.855Z,24.16
2022-08-18T02:35:40.436Z,24.17
2022-08-18T02:36:43.179Z,24.17
2022-08-18T02:37:48.566Z,24.18
2022-08-18T02:38:54.771Z,24.18
2022-08-18T02:40:01.954Z,24.18
2022-08-18T02:41:09.396Z,24.16
2022-08-18T02:42:14.594Z,24.16
2022-08-18T02:43:17.344Z,24.15
2022-08-18T02:44:20.149Z,24.15
2022-08-18T02:45:25.694Z,24.15
2022-08-18T02:46:29.905Z,24.14
2022-08-18T02:47:33.799Z,24.12
2022-08-18T02:48:36.857Z,24.10
2022-08-18T02:49:39.727Z,24.09
2022-08-18T02:50:48.360Z,24.10
2022-08-18T02:51:51.565Z,24.09
2022-08-18T02:52:54.717Z,24.09
2022-08-18T02:54:00.306Z,24.09
2022-08-18T02:55:04.081Z,24.09
2022-08-18T02:56:41.598Z,24.07
2022-08-18T02:57:45.979Z,24.06
2022-08-18T02:58:49.859Z,24.05
2022-08-18T02:59:52.597Z,24.04
2022-08-18T03:00:55.253Z,24.04
2022-08-18T03:01:58.692Z,24.02
2022-08-18T03:03:01.514Z,23.99
2022-08-18T03:04:06.562Z,23.99
2022-08-18T03:05:09.344Z,23.97
2022-08-18T03:06:18.488Z,23.98
2022-08-18T03:07:21.215Z,23.98
2022-08-18T03:08:23.857Z,23.98
2022-08-18T03:09:27.061Z,23.98
2022-08-18T03:10:32.421Z,23.97
2022-08-18T03:11:36.995Z,23.97
2022-08-18T03:12:41.887Z,23.96
2022-08-18T03:13:44.698Z,23.96
2022-08-18T03:14:47.437Z,23.95
2022-08-18T03:15:54.685Z,23.95
2022-08-18T03:16:59.856Z,23.95
2022-08-18T03:18:02.597Z,23.95
2022-08-18T03:19:05.295Z,23.95
2022-08-18T03:20:08.123Z,23.96
2022-08-18T03:21:13.336Z,23.96
2022-08-18T03:22:27.620Z,23.95
2022-08-18T03:23:32.147Z,23.96
2022-08-18T03:24:36.270Z,23.98
2022-08-18T03:25:49.080Z,23.99
2022-08-18T03:26:52.837Z,23.99
2022-08-18T03:27:55.553Z,24.00
2022-08-18T03:29:00.131Z,24.00
2022-08-18T03:30:04.542Z,24.00
2022-08-18T03:31:15.137Z,24.01
2022-08-18T03:32:18.462Z,24.01
2022-08-18T03:33:21.575Z,24.01
2022-08-18T03:34:24.254Z,24.00
2022-08-18T03:35:27.098Z,24.00
2022-08-18T03:36:32.066Z,24.01
2022-08-18T03:37:34.885Z,24.02
2022-08-18T03:38:38.325Z,24.03
2022-08-18T03:39:41.144Z,24.04
2022-08-18T03:40:43.903Z,24.04
2022-08-18T03:42:00.119Z,24.05
2022-08-18T03:43:27.882Z,24.06
2022-08-18T03:44:32.137Z,24.07
2022-08-18T03:45:35.312Z,24.08
2022-08-18T03:46:39.932Z,24.10
2022-08-18T03:47:42.594Z,24.10
2022-08-18T03:48:47.241Z,24.11
2022-08-18T03:49:50.048Z,24.13
2022-08-18T03:50:52.836Z,24.14
2022-08-18T03:51:56.006Z,24.15
2022-08-18T03:52:59.678Z,24.16
2022-08-18T03:54:03.623Z,24.18
2022-08-18T03:55:06.515Z,24.18
2022-08-18T03:56:15.874Z,24.19
2022-08-18T03:57:20.436Z,24.21
2022-08-18T03:58:23.109Z,24.21
2022-08-18T03:59:26.231Z,24.23
2022-08-18T04:00:30.308Z,24.23
2022-08-18T04:01:33.597Z,24.25
2022-08-18T04:02:36.452Z,24.26
2022-08-18T04:03:39.133Z,24.27
2022-08-18T04:04:42.919Z,24.28
2022-08-18T04:05:46.545Z,24.31
2022-08-18T04:06:50.624Z,24.31
2022-08-18T04:07:54.386Z,24.33
2022-08-18T04:08:58.451Z,24.34
2022-08-18T04:10:01.364Z,24.35
2022-08-18T04:11:04.682Z,24.36
2022-08-18T04:12:15.489Z,24.36
2022-08-18T04:13:19.653Z,24.37
2022-08-18T04:14:30.096Z,24.37
2022-08-18T04:15:32.807Z,24.38
2022-08-18T04:16:36.431Z,24.40
2022-08-18T04:18:03.006Z,24.41
2022-08-18T04:19:04.544Z,24.41
2022-08-18T04:20:07.592Z,24.42
2022-08-18T04:21:13.583Z,24.44
2022-08-18T04:22:17.410Z,24.45
2022-08-18T04:23:21.454Z,24.47
2022-08-18T04:24:26.097Z,24.48
2022-08-18T04:25:32.877Z,24.50
2022-08-18T04:26:37.588Z,24.51
2022-08-18T04:27:42.734Z,24.52
2022-08-18T04:28:45.478Z,24.54
2022-08-18T04:29:48.385Z,24.55
2022-08-18T04:30:51.144Z,24.56
2022-08-18T04:31:54.296Z,24.58
2022-08-18T04:32:56.968Z,24.59
2022-08-18T04:34:00.356Z,24.62
2022-08-18T04:35:04.202Z,24.65
2022-08-18T04:36:20.508Z,24.69
2022-08-18T04:37:23.645Z,24.75
2022-08-18T04:38:26.291Z,24.78
2022-08-18T04:39:30.030Z,24.82
2022-08-18T04:40:34.015Z,24.85
2022-08-18T04:41:37.450Z,24.87
2022-08-18T04:42:40.227Z,24.89
2022-08-18T04:43:50.396Z,24.92
2022-08-18T04:44:53.121Z,24.94
2022-08-18T04:46:01.649Z,24.95
2022-08-18T04:47:04.996Z,24.97
2022-08-18T04:48:07.814Z,25.00
2022-08-18T04:49:11.984Z,25.03
2022-08-18T04:50:14.816Z,25.04
2022-08-18T04:52:27.043Z,25.07
2022-08-18T04:53:00.806Z,25.11
2022-08-18T04:54:03.579Z,25.13
2022-08-18T04:55:06.684Z,25.15
2022-08-18T04:56:09.351Z,25.17
2022-08-18T04:57:13.475Z,25.19
2022-08-18T04:58:18.805Z,25.21
2022-08-18T04:59:21.786Z,25.25
2022-08-18T05:00:24.480Z,25.27
2022-08-18T05:01:31.424Z,25.29
2022-08-18T05:02:35.094Z,25.32
2022-08-18T05:03:38.358Z,25.35
2022-08-18T05:04:52.901Z,25.39
2022-08-18T05:05:58.178Z,25.41
2022-08-18T05:07:00.947Z,25.43
2022-08-18T05:08:04.110Z,25.47
2022-08-18T05:09:07.787Z,25.51
2022-08-18T05:10:12.381Z,25.56
2022-08-18T05:11:15.557Z,25.62
2022-08-18T05:12:18.235Z,25.67
2022-08-18T05:13:23.456Z,25.72
2022-08-18T05:14:26.165Z,25.76
2022-08-18T05:15:34.799Z,25.80
2022-08-18T05:16:48.482Z,25.84
2022-08-18T05:17:52.241Z,25.88
2022-08-18T05:18:57.101Z,25.91
2022-08-18T05:20:01.835Z,25.94
2022-08-18T05:21:05.138Z,25.95
2022-08-18T05:22:17.892Z,25.97
2022-08-18T05:23:21.825Z,25.99
2022-08-18T05:24:32.213Z,26.00
2022-08-18T05:25:40.109Z,26.02
2022-08-18T05:26:44.553Z,26.03
2022-08-18T05:27:47.216Z,26.05
2022-08-18T05:28:49.893Z,26.06
2022-08-18T05:30:05.190Z,26.08
2022-08-18T05:31:13.987Z,26.10
2022-08-18T05:32:41.099Z,26.09
2022-08-18T05:33:40.591Z,26.09
2022-08-18T05:34:48.859Z,26.10
2022-08-18T05:35:55.142Z,26.11
2022-08-18T05:37:06.112Z,26.09
2022-08-18T05:38:26.820Z,26.11
2022-08-18T05:39:44.874Z,26.12
2022-08-18T05:40:56.336Z,26.13
2022-08-18T05:41:59.013Z,26.13
2022-08-18T05:43:03.344Z,26.16
2022-08-18T05:44:07.513Z,26.18
2022-08-18T05:45:12.286Z,26.21
2022-08-18T05:46:16.240Z,26.24
2022-08-18T05:47:28.608Z,26.26
2022-08-18T05:48:32.713Z,26.29
2022-08-18T05:49:36.161Z,26.32
2022-08-18T05:50:39.048Z,26.34
2022-08-18T05:51:54.151Z,26.36
2022-08-18T05:52:56.812Z,26.38
2022-08-18T05:54:24.999Z,26.42
2022-08-18T05:56:00.735Z,26.42
2022-08-18T05:57:08.093Z,26.43
2022-08-18T05:58:15.208Z,26.46
2022-08-18T05:59:21.383Z,26.50
2022-08-18T06:00:24.504Z,26.53
2022-08-18T06:01:30.389Z,26.54
2022-08-18T06:02:46.031Z,26.58
2022-08-18T06:03:59.693Z,26.63
2022-08-18T06:05:20.189Z,26.67
2022-08-18T06:06:30.495Z,26.70
2022-08-18T06:07:40.956Z,26.74
2022-08-18T06:08:59.130Z,26.78
2022-08-18T06:10:02.603Z,26.80
2022-08-18T06:11:05.631Z,26.85
2022-08-18T06:12:24.357Z,26.90
2022-08-18T06:13:27.142Z,26.92
2022-08-18T06:14:29.989Z,26.96
2022-08-18T06:15:39.547Z,27.00
2022-08-18T06:16:49.347Z,27.03
2022-08-18T06:18:10.683Z,27.07
2022-08-18T06:19:31.823Z,27.07
2022-08-18T06:21:02.402Z,27.11
2022-08-18T06:22:23.913Z,27.19
2022-08-18T06:23:35.600Z,27.25
2022-08-18T06:24:44.521Z,27.31
2022-08-18T06:25:58.057Z,27.36
2022-08-18T06:27:09.987Z,27.41
2022-08-18T06:28:15.757Z,27.43
2022-08-18T06:29:18.680Z,27.46
2022-08-18T06:30:40.184Z,27.50
2022-08-18T06:31:51.428Z,27.55
2022-08-18T06:33:10.321Z,27.60
2022-08-18T06:34:18.764Z,27.65
2022-08-18T06:35:36.564Z,27.68
2022-08-18T06:36:52.557Z,27.74
2022-08-18T06:38:17.227Z,27.78
2022-08-18T06:39:24.078Z,27.84
2022-08-18T06:40:27.068Z,27.89
2022-08-18T06:41:42.687Z,27.92
2022-08-18T06:42:48.173Z,27.97
2022-08-18T06:43:59.957Z,28.00
2022-08-18T06:45:05.774Z,28.04
2022-08-18T06:46:13.845Z,28.07
2022-08-18T06:47:26.366Z,28.08
2022-08-18T06:48:44.655Z,28.13
2022-08-18T06:49:55.343Z,28.12
2022-08-18T06:51:02.341Z,28.17
2022-08-18T06:52:25.741Z,28.23
2022-08-18T06:53:48.561Z,28.28
2022-08-18T06:54:51.986Z,28.35
2022-08-18T06:55:55.184Z,28.41
2022-08-18T06:56:58.874Z,28.47
2022-08-18T06:58:04.717Z,28.52
2022-08-18T06:59:19.041Z,28.58
2022-08-18T07:00:23.928Z,28.64
2022-08-18T07:01:26.972Z,28.70
2022-08-18T07:02:41.764Z,28.74
2022-08-18T07:03:54.865Z,28.80
2022-08-18T07:05:00.347Z,28.85
2022-08-18T07:06:07.897Z,28.91
2022-08-18T07:07:29.419Z,28.97
2022-08-18T07:08:44.745Z,29.06
2022-08-18T07:09:48.566Z,29.12
2022-08-18T07:10:52.131Z,29.19
2022-08-18T07:12:17.639Z,29.25
2022-08-18T07:13:28.105Z,29.29
2022-08-18T07:14:30.866Z,29.33
2022-08-18T07:15:33.606Z,29.36
2022-08-18T07:18:07.523Z,29.39
2022-08-18T07:19:11.474Z,29.42
2022-08-18T07:20:24.416Z,29.43
2022-08-18T07:21:28.745Z,29.47
2022-08-18T07:22:39.199Z,29.48
2022-08-18T07:23:42.559Z,29.51
2022-08-18T07:24:47.080Z,29.53
2022-08-18T07:25:51.387Z,29.54
2022-08-18T07:26:58.076Z,29.53
2022-08-18T07:28:02.831Z,29.52
2022-08-18T07:29:15.469Z,29.51
2022-08-18T07:30:19.313Z,29.52
2022-08-18T07:31:24.884Z,29.52
2022-08-18T07:32:32.384Z,29.52
2022-08-18T07:33:35.974Z,29.52
2022-08-18T07:34:41.227Z,29.54
2022-08-18T07:35:53.672Z,29.54
2022-08-18T07:37:05.756Z,29.53
2022-08-18T07:38:40.873Z,29.55
2022-08-18T07:39:40.500Z,29.56
2022-08-18T07:41:01.927Z,29.56
2022-08-18T07:42:04.663Z,29.58
2022-08-18T07:43:28.885Z,29.59
2022-08-18T07:44:44.990Z,29.62
2022-08-18T07:45:48.295Z,29.63
2022-08-18T07:47:10.509Z,29.66
2022-08-18T07:49:59.688Z,29.71
2022-08-18T07:51:21.324Z,29.75
2022-08-18T07:52:36.164Z,29.78
2022-08-18T07:53:56.010Z,29.82
2022-08-18T07:55:04.432Z,29.85
2022-08-18T07:56:14.166Z,29.87
2022-08-18T07:57:20.076Z,29.89
2022-08-18T07:58:41.840Z,29.89
2022-08-18T07:59:52.955Z,29.87
2022-08-18T08:01:04.799Z,29.87
2022-08-18T08:02:30.256Z,29.81
2022-08-18T08:03:44.961Z,29.76
2022-08-18T08:05:06.837Z,29.76
2022-08-18T08:06:29.948Z,29.78
2022-08-18T08:07:37.958Z,29.83
2022-08-18T08:08:59.250Z,29.84
2022-08-18T08:10:25.203Z,29.88
2022-08-18T08:11:31.040Z,29.92
2022-08-18T08:12:34.745Z,29.94
2022-08-18T08:13:56.188Z,29.97
2022-08-18T08:15:11.333Z,29.99
2022-08-18T08:16:23.276Z,30.03
2022-08-18T08:18:01.223Z,30.01
2022-08-18T08:19:12.448Z,30.06
2022-08-18T08:20:36.592Z,30.07
2022-08-18T08:21:53.065Z,30.06
2022-08-18T08:23:04.755Z,30.09
2022-08-18T08:24:13.204Z,30.12
2022-08-18T08:25:46.499Z,30.12
2022-08-18T08:26:58.521Z,30.16
2022-08-18T08:28:20.546Z,30.18
2022-08-18T08:29:38.222Z,30.21
2022-08-18T08:30:46.690Z,30.25
2022-08-18T08:31:55.012Z,30.28
2022-08-18T08:33:00.461Z,30.31
2022-08-18T08:34:07.445Z,30.34
2022-08-18T08:35:49.668Z,30.37
2022-08-18T08:36:44.999Z,30.42
2022-08-18T08:37:59.116Z,30.46
2022-08-18T08:39:09.263Z,30.49
2022-08-18T08:40:26.453Z,30.50
2022-08-18T08:41:41.730Z,30.52
2022-08-18T08:43:02.898Z,30.50
2022-08-18T08:44:22.200Z,30.51
2022-08-18T08:45:26.866Z,30.53
2022-08-18T08:46:30.972Z,30.54
2022-08-18T08:47:40.745Z,30.55
2022-08-18T08:48:46.629Z,30.55
2022-08-18T08:49:55.957Z,30.53
2022-08-18T08:51:06.680Z,30.56
2022-08-18T08:52:20.161Z,30.56
2022-08-18T08:53:22.872Z,30.57
2022-08-18T08:54:28.722Z,30.60
2022-08-18T08:55:34.342Z,30.65
2022-08-18T08:56:41.772Z,30.69
2022-08-18T08:58:13.665Z,30.67
2022-08-18T08:59:18.034Z,30.66
2022-08-18T09:00:21.477Z,30.63
2022-08-18T09:01:36.980Z,30.64
2022-08-18T09:02:54.913Z,30.70
2022-08-18T09:04:03.555Z,30.76
2022-08-18T09:05:11.575Z,30.82
2022-08-18T09:06:21.177Z,30.89
2022-08-18T09:07:48.294Z,30.92
2022-08-18T09:09:09.576Z,30.96
2022-08-18T09:10:12.782Z,30.99
2022-08-18T09:11:21.243Z,31.01
2022-08-18T09:12:42.560Z,31.04
2022-08-18T09:13:57.771Z,31.07
2022-08-18T09:15:00.708Z,31.09
2022-08-18T09:16:15.805Z,31.11
2022-08-18T09:17:25.064Z,31.13
2022-08-18T09:18:49.121Z,31.16
2022-08-18T09:20:09.586Z,31.21
2022-08-18T09:21:27.340Z,31.29
2022-08-18T09:22:49.022Z,31.36
2022-08-18T09:23:54.492Z,31.46
2022-08-18T09:24:57.570Z,31.52
2022-08-18T09:26:20.312Z,31.58
2022-08-18T09:27:23.103Z,31.66
2022-08-18T09:28:28.787Z,31.71
2022-08-18T09:29:37.338Z,31.73
2022-08-18T09:31:02.943Z,31.67
2022-08-18T09:32:22.855Z,31.53
2022-08-18T09:33:44.491Z,31.40
2022-08-18T09:34:51.544Z,31.31
2022-08-18T09:36:06.247Z,31.25
2022-08-18T09:37:20.071Z,31.25
2022-08-18T09:38:48.955Z,31.23
2022-08-18T09:40:17.143Z,31.25
2022-08-18T09:41:34.026Z,31.32
2022-08-18T09:42:48.612Z,31.36
2022-08-18T09:44:17.743Z,31.43
2022-08-18T09:45:33.377Z,31.43
2022-08-18T09:46:43.723Z,31.41
2022-08-18T09:47:52.634Z,31.36
2022-08-18T09:49:15.681Z,31.33
2022-08-18T09:50:28.486Z,31.29
2022-08-18T09:51:34.414Z,31.27
2022-08-18T09:52:37.376Z,31.27
2022-08-18T09:53:53.068Z,31.27
2022-08-18T09:54:59.533Z,31.33
2022-08-18T09:56:05.004Z,31.40
2022-08-18T09:57:19.569Z,31.42
2022-08-18T09:58:26.374Z,31.37
2022-08-18T09:59:38.202Z,31.30
2022-08-18T10:00:41.203Z,31.26
2022-08-18T10:01:44.083Z,31.31
2022-08-18T10:02:56.164Z,31.42
2022-08-18T10:04:21.628Z,31.52
2022-08-18T10:05:29.284Z,31.64
2022-08-18T10:06:32.060Z,31.69
2022-08-18T10:11:02.560Z,31.49
2022-08-18T10:12:15.915Z,31.40
2022-08-18T10:13:45.135Z,31.33
2022-08-18T10:14:58.917Z,31.35
2022-08-18T10:16:20.176Z,31.43
2022-08-18T10:17:37.708Z,31.53
2022-08-18T10:19:03.448Z,31.61
2022-08-18T10:20:26.513Z,31.64
2022-08-18T10:21:50.553Z,31.58
2022-08-18T10:22:57.398Z,31.44
2022-08-18T10:24:32.177Z,31.32
2022-08-18T10:25:34.221Z,31.23
2022-08-18T10:26:41.168Z,31.23
2022-08-18T10:27:57.940Z,31.26
2022-08-18T10:29:00.748Z,31.24
2022-08-18T10:30:04.667Z,31.16
2022-08-18T10:31:09.728Z,31.07
2022-08-18T10:32:14.099Z,30.97
2022-08-18T10:33:37.543Z,30.88
2022-08-18T10:34:52.111Z,30.76
2022-08-18T10:35:59.560Z,30.67
2022-08-18T10:37:11.905Z,30.62
2022-08-18T10:38:30.822Z,30.66
2022-08-18T10:39:41.732Z,30.76
2022-08-18T10:40:53.615Z,30.88
2022-08-18T10:42:02.228Z,31.00
2022-08-18T10:44:37.033Z,31.25
2022-08-18T10:46:23.014Z,31.35
2022-08-18T10:47:33.486Z,31.46
2022-08-18T10:48:40.218Z,31.59
2022-08-18T10:49:48.222Z,31.69
2022-08-18T10:50:50.999Z,31.76
2022-08-18T10:52:20.931Z,31.77
2022-08-18T10:53:43.936Z,31.68
2022-08-18T10:55:10.057Z,31.58
2022-08-18T10:56:31.688Z,31.49
2022-08-18T10:58:00.679Z,31.42
2022-08-18T10:59:17.386Z,31.38
2022-08-18T11:00:22.834Z,31.35
2022-08-18T11:01:25.594Z,31.31
2022-08-18T11:02:48.917Z,31.24
2022-08-18T11:04:22.481Z,31.19
2022-08-18T11:05:29.105Z,31.13
2022-08-18T11:06:41.515Z,31.12
2022-08-18T11:07:52.259Z,31.12
2022-08-18T11:09:00.112Z,31.13
2022-08-18T11:13:16.985Z,31.23
2022-08-18T11:14:37.295Z,31.26
2022-08-18T11:15:40.058Z,31.29
2022-08-18T11:16:49.510Z,31.31
2022-08-18T11:17:52.414Z,31.32
2022-08-18T11:19:03.761Z,31.34
2022-08-18T11:20:10.892Z,31.38
2022-08-18T11:21:34.400Z,31.43
2022-08-18T11:22:57.026Z,31.50
2022-08-18T11:24:02.821Z,31.56
2022-08-18T11:25:28.055Z,31.62
2022-08-18T11:26:35.107Z,31.81
2022-08-18T11:27:45.248Z,32.08
2022-08-18T11:28:49.531Z,32.40
2022-08-18T11:29:52.737Z,32.65
2022-08-18T11:30:56.272Z,32.86
2022-08-18T11:31:59.579Z,33.04
2022-08-18T11:33:05.767Z,33.19
2022-08-18T11:34:19.880Z,33.31
2022-08-18T11:35:30.939Z,33.39
2022-08-18T11:36:34.625Z,33.45
2022-08-18T11:37:55.791Z,33.50
2022-08-18T11:38:58.680Z,33.58
2022-08-18T11:40:02.963Z,33.63
2022-08-18T11:41:13.580Z,33.69
2022-08-18T11:42:25.056Z,33.76
2022-08-18T11:43:41.578Z,33.84
2022-08-18T11:44:46.129Z,33.94
2022-08-18T11:45:54.877Z,34.00
2022-08-18T11:47:08.834Z,34.04
2022-08-18T11:48:14.911Z,34.05
2022-08-18T11:49:30.248Z,34.02
2022-08-18T11:50:44.746Z,33.98
2022-08-18T11:53:24.557Z,33.93
2022-08-18T11:54:50.210Z,33.93
2022-08-18T11:56:30.554Z,33.99
2022-08-18T11:59:05.466Z,34.15
2022-08-18T12:00:27.081Z,34.22
2022-08-18T12:01:36.137Z,34.32
2022-08-18T12:02:45.102Z,34.43
2022-08-18T12:03:49.508Z,34.54
2022-08-18T12:04:54.282Z,34.68
2022-08-18T12:06:19.338Z,34.82
2022-08-18T12:07:32.153Z,34.99
2022-08-18T12:10:16.706Z,35.37
2022-08-18T12:11:28.004Z,35.52
2022-08-18T12:12:32.303Z,35.70
2022-08-18T12:13:35.289Z,35.85
2022-08-18T12:14:52.075Z,36.00
2022-08-18T12:16:12.002Z,36.14
2022-08-18T12:17:14.669Z,36.32
2022-08-18T12:18:26.243Z,36.44
2022-08-18T12:19:34.465Z,36.56
2022-08-18T12:20:37.585Z,36.66
2022-08-18T12:21:41.328Z,36.73
2022-08-18T12:22:45.200Z,36.86
2022-08-18T12:23:52.235Z,36.96
2022-08-18T12:24:55.354Z,37.05
2022-08-18T12:25:59.200Z,37.16
2022-08-18T12:27:01.906Z,37.27
2022-08-18T12:28:15.315Z,37.44
2022-08-18T12:29:18.933Z,37.56
2022-08-18T12:30:23.769Z,37.67
2022-08-18T12:31:28.876Z,37.79
2022-08-18T12:32:50.558Z,37.92
2022-08-18T12:34:01.090Z,38.04
2022-08-18T12:35:09.517Z,38.12
2022-08-18T12:36:13.671Z,38.23
2022-08-18T12:37:54.426Z,38.28
2022-08-18T12:38:42.179Z,38.34
2022-08-18T12:39:46.681Z,38.40
2022-08-18T12:40:49.855Z,38.45
2022-08-18T12:41:55.097Z,38.47
2022-08-18T12:42:57.907Z,38.46
2022-08-18T12:44:00.664Z,38.49
2022-08-18T12:45:03.988Z,38.52
2022-08-18T12:46:06.971Z,38.59
2022-08-18T12:47:16.845Z,38.68
2022-08-18T12:48:22.289Z,38.80
2022-08-18T12:49:25.262Z,38.91
2022-08-18T12:50:31.179Z,39.03
2022-08-18T12:51:36.225Z,39.12
2022-08-18T12:52:39.033Z,39.25
2022-08-18T12:53:58.436Z,39.39
2022-08-18T12:55:03.134Z,39.61
2022-08-18T12:56:10.485Z,39.73
2022-08-18T12:57:33.206Z,39.83
2022-08-18T12:58:42.903Z,40.01
2022-08-18T12:59:46.579Z,40.16
2022-08-18T13:00:49.780Z,40.25
2022-08-18T13:01:58.610Z,40.30
2022-08-18T13:03:02.966Z,40.31
2022-08-18T13:04:12.982Z,40.32
2022-08-18T13:05:16.992Z,40.37
2022-08-18T13:06:20.230Z,40.40
2022-08-18T13:07:22.945Z,40.42
2022-08-18T13:08:30.799Z,40.45
2022-08-18T13:09:47.972Z,40.51
2022-08-18T13:11:00.518Z,40.60
2022-08-18T13:12:19.180Z,40.78
2022-08-18T13:13:22.082Z,40.91
2022-08-18T13:14:28.710Z,41.04
2022-08-18T13:15:33.090Z,41.17
2022-08-18T13:16:53.352Z,41.28
2022-08-18T13:17:57.324Z,41.46
2022-08-18T13:19:00.087Z,41.59
2022-08-18T13:20:09.116Z,41.75
2022-08-18T13:21:13.399Z,41.87
2022-08-18T13:22:16.085Z,41.90
2022-08-18T13:23:24.567Z,41.85
2022-08-18T13:24:27.910Z,41.80
2022-08-18T13:25:33.172Z,41.66
2022-08-18T13:26:45.961Z,41.41
2022-08-18T13:27:52.266Z,41.18
2022-08-18T13:28:56.978Z,40.98
2022-08-18T13:30:01.057Z,40.76
2022-08-18T13:31:05.277Z,40.57
2022-08-18T13:32:09.527Z,40.40
2022-08-18T13:33:34.966Z,40.23
2022-08-18T13:34:36.283Z,40.01
2022-08-18T13:35:44.487Z,39.85
2022-08-18T13:36:48.335Z,39.72
2022-08-18T13:37:51.217Z,39.66
2022-08-18T13:38:54.578Z,39.59
2022-08-18T13:39:59.060Z,39.55
2022-08-18T13:41:05.449Z,39.56
2022-08-18T13:42:26.334Z,39.55
2022-08-18T13:43:35.861Z,39.52
2022-08-18T13:44:41.861Z,39.52
2022-08-18T13:45:56.558Z,39.55
2022-08-18T13:46:59.437Z,39.52
2022-08-18T13:48:02.223Z,39.50
2022-08-18T13:49:05.014Z,39.54
2022-08-18T13:50:11.576Z,39.59
2022-08-18T13:51:19.674Z,39.68
2022-08-18T13:52:34.070Z,39.75
2022-08-18T13:53:50.596Z,39.79
2022-08-18T13:54:54.246Z,39.82
2022-08-18T13:55:59.753Z,39.83
2022-08-18T13:57:03.217Z,39.75
2022-08-18T13:58:17.657Z,39.65
2022-08-18T13:59:23.818Z,39.47
2022-08-18T14:00:30.925Z,39.30
2022-08-18T14:01:45.414Z,39.08
2022-08-18T14:02:57.202Z,38.81
2022-08-18T14:03:59.997Z,38.61
2022-08-18T14:05:02.731Z,38.45
2022-08-18T14:06:07.580Z,38.31
2022-08-18T14:07:12.570Z,38.13
2022-08-18T14:08:21.462Z,37.94
2022-08-18T14:09:36.435Z,37.79
2022-08-18T14:10:40.429Z,37.62
2022-08-18T14:11:43.430Z,37.49
2022-08-18T14:12:57.952Z,37.33
2022-08-18T14:14:02.135Z,37.20
2022-08-18T14:15:06.955Z,37.10
2022-08-18T14:16:10.490Z,37.06
2022-08-18T14:17:13.441Z,37.09
2022-08-18T14:18:16.469Z,37.12
2022-08-18T14:19:37.894Z,37.12
2022-08-18T14:21:01.751Z,37.11
2022-08-18T14:22:23.443Z,37.09
2022-08-18T14:23:53.077Z,37.03
2022-08-18T14:25:14.532Z,36.96
2022-08-18T14:26:43.286Z,36.83
2022-08-18T14:27:56.909Z,36.74
2022-08-18T14:28:59.983Z,36.69
2022-08-18T14:30:09.903Z,36.65
2022-08-18T14:31:13.407Z,36.62
2022-08-18T14:32:29.342Z,36.52
2022-08-18T14:33:49.429Z,36.42
2022-08-18T14:34:59.952Z,36.24
2022-08-18T14:36:09.428Z,36.08
2022-08-18T14:37:12.733Z,35.91
2022-08-18T14:38:16.083Z,35.73
2022-08-18T14:39:19.180Z,35.58
2022-08-18T14:40:22.122Z,35.42
2022-08-18T14:41:25.617Z,35.23
2022-08-18T14:42:41.371Z,35.06
2022-08-18T14:44:12.922Z,34.93
2022-08-18T14:45:17.803Z,34.75
2022-08-18T14:46:34.827Z,34.58
2022-08-18T14:47:37.625Z,34.45
2022-08-18T14:48:42.535Z,34.34
2022-08-18T14:49:48.026Z,34.21
2022-08-18T14:50:52.531Z,34.09
2022-08-18T14:51:56.086Z,33.98
2022-08-18T14:52:59.675Z,33.84
2022-08-18T14:54:02.400Z,33.70
2022-08-18T14:55:05.787Z,33.57
2022-08-18T14:56:12.321Z,33.43
2022-08-18T14:57:15.367Z,33.27
2022-08-18T14:58:28.691Z,33.13
2022-08-18T14:59:34.580Z,32.98
2022-08-18T15:00:53.925Z,32.85
2022-08-18T15:01:59.425Z,32.72
2022-08-18T15:03:02.206Z,32.64
2022-08-18T15:04:18.612Z,32.57
2022-08-18T15:05:24.461Z,32.51
2022-08-18T15:06:27.645Z,32.54